Hager City, Wisconsin
Current Conditions -  °F | °C
As of 6:51 PM on Wednesday 17 Dec 2014 (Local Time) from KRGK Reporting Station
Scattered Clouds Scattered Clouds  
Wind Chill: 18°   Ceiling: Unl
Heat Index: 18°   Visibility: 10mi
Dew Point: 10°   Wind: 0mph
Humidity: 73%   Direction: NA
Pressure: 30.31"   Gusts: NA
Location:  44.6°N, 92.54°W
Report Text: KRGK 180051Z AUTO 00000KT 10SM SCT022 M08/M12 A3031 RMK AO2
Loading
Personal Weather Stations






























Interactive Weather Map New forecast layout! Learn more

10-Day Weather Forecast

Advertisements
Track Severe Weather on mobile